Time;durP1;ratioP1;P1;durP2;ratioP2;P2;SDS_P1;SDS_P2;PMS_P1;PMS_P2;Temp;Humidity;BMP_temperature;BMP_pressure;BME280_temperature;BME280_humidity;BME280_pressure;Samples;Min_cycle;Max_cycle;Signal;HPM_P1;HPM_P2
2021/04/21 04:46:16;;;;;;;6.47;4.15;;;;;;;;;;6266116;22;884156;-82
2021/04/21 04:48:48;;;;;;;6.28;4.25;;;;;;;;;;6316724;22;20086;-81
2021/04/21 04:51:14;;;;;;;;;;;;;;;;;;6289108;22;20442;-82
2021/04/21 04:53:41;;;;;;;8.90;4.82;;;;;;;;;;6288418;22;19909;-81
2021/04/21 04:56:07;;;;;;;6.82;4.15;;;;;;;;;;6276325;22;20418;-80
2021/04/21 04:58:33;;;;;;;5.80;3.85;;;;;;;;;;6258848;22;20000;-81
2021/04/21 05:01:03;;;;;;;6.28;4.30;;;;;;;;;;6258345;22;20086;-82
2021/04/21 05:03:31;;;;;;;7.68;4.82;;;;;;;;;;6285732;22;20006;-81
2021/04/21 05:05:58;;;;;;;7.57;4.50;;;;;;;;;;6258343;22;20012;-82
2021/04/21 05:08:27;;;;;;;5.93;3.83;;;;;;;;;;6258000;22;20004;-82
2021/04/21 05:10:56;;;;;;;8.43;4.43;;;;;;;;;;6258718;22;20007;-82
2021/04/21 05:13:23;;;;;;;5.93;3.92;;;;;;;;;;6285341;22;20018;-81
2021/04/21 05:15:52;;;;;;;7.35;3.75;;;;;;;;;;6258160;22;20033;-82
2021/04/21 05:18:30;;;;;;;8.50;4.72;;;;;;;;;;6258751;22;20330;-82
2021/04/21 05:21:02;;;;;;;6.28;4.28;;;;;;;;;;6258547;22;20057;-82
2021/04/21 05:23:31;;;;;;;5.75;4.05;;;;;;;;;;6258662;22;20011;-82
2021/04/21 05:26:22;;;;;;;7.30;4.32;;;;;;;;;;6257968;22;20448;-81
2021/04/21 05:29:07;;;;;;;8.38;4.70;;;;;;;;;;6194405;22;20008;-81
2021/04/21 05:31:51;;;;;;;6.18;4.20;;;;;;;;;;6250783;22;20030;-81
2021/04/21 05:34:56;;;;;;;5.97;3.70;;;;;;;;;;6250120;22;20011;-82
2021/04/21 05:37:39;;;;;;;8.02;4.63;;;;;;;;;;6123808;23;20018;-80
2021/04/21 05:40:11;;;;;;;9.63;4.88;;;;;;;;;;6099968;23;20006;-81
2021/04/21 05:42:36;;;;;;;7.97;4.65;;;;;;;;;;6192996;22;20739;-82
2021/04/21 05:45:14;;;;;;;7.32;4.97;;;;;;;;;;6249647;22;20006;-81
2021/04/21 05:47:40;;;;;;;7.07;4.80;;;;;;;;;;6250278;22;20007;-80
2021/04/21 05:50:06;;;;;;;8.10;5.07;;;;;;;;;;6250154;22;20011;-80
2021/04/21 05:52:34;;;;;;;7.07;4.70;;;;;;;;;;6277660;22;20015;-82
2021/04/21 05:55:32;;;;;;;8.25;4.95;;;;;;;;;;6277190;22;20003;-81
2021/04/21 05:58:17;;;;;;;7.28;4.80;;;;;;;;;;6167994;22;20011;-81
2021/04/21 06:01:01;;;;;;;9.13;5.80;;;;;;;;;;6277569;22;20018;-81
2021/04/21 06:03:27;;;;;;;8.02;5.20;;;;;;;;;;6278505;22;20422;-82
2021/04/21 06:06:01;;;;;;;10.50;5.80;;;;;;;;;;6250206;22;20007;-80
2021/04/21 06:08:28;;;;;;;10.38;5.88;;;;;;;;;;6278093;22;20015;-81
2021/04/21 06:10:54;;;;;;;10.30;5.13;;;;;;;;;;6277423;22;20008;-81
2021/04/21 06:13:25;;;;;;;9.40;5.85;;;;;;;;;;6249805;22;20086;-81
2021/04/21 06:15:51;;;;;;;9.55;5.88;;;;;;;;;;6250846;22;20003;-81
2021/04/21 06:18:17;;;;;;;10.35;6.03;;;;;;;;;;6250986;22;20004;-82
2021/04/21 06:20:44;;;;;;;8.80;5.00;;;;;;;;;;6250692;22;20000;-81
2021/04/21 06:23:09;;;;;;;8.25;5.55;;;;;;;;;;6250044;22;20008;-81
2021/04/21 06:25:37;;;;;;;9.35;6.05;;;;;;;;;;6249258;22;20053;-80
2021/04/21 06:28:07;;;;;;;10.32;6.35;;;;;;;;;;6249376;22;20014;-81
2021/04/21 06:30:33;;;;;;;9.75;6.10;;;;;;;;;;6276899;22;20330;-81
2021/04/21 06:33:00;;;;;;;8.85;5.50;;;;;;;;;;6250251;22;20091;-80
2021/04/21 06:35:28;;;;;;;10.43;6.38;;;;;;;;;;6279019;22;19995;-81
2021/04/21 06:37:54;;;;;;;9.48;6.40;;;;;;;;;;6250639;22;20011;-82
2021/04/21 06:40:24;;;;;;;8.57;5.90;;;;;;;;;;6251304;22;20004;-81
2021/04/21 06:42:49;;;;;;;8.63;6.20;;;;;;;;;;6277922;22;20507;-82
2021/04/21 06:45:21;;;;;;;8.10;5.88;;;;;;;;;;6250822;22;20008;-83
2021/04/21 06:47:47;;;;;;;10.60;5.95;;;;;;;;;;6278182;22;20004;-83
2021/04/21 06:50:13;;;;;;;9.18;6.32;;;;;;;;;;6251911;22;20198;-83
2021/04/21 06:52:41;;;;;;;9.45;5.97;;;;;;;;;;6250847;22;20004;-84
2021/04/21 06:55:11;;;;;;;9.63;6.22;;;;;;;;;;6278262;22;20025;-83
2021/04/21 06:57:36;;;;;;;11.38;7.18;;;;;;;;;;6276567;22;20007;-86
2021/04/21 07:00:04;;;;;;;8.68;6.35;;;;;;;;;;6248415;22;20014;-86
2021/04/21 07:02:40;;;;;;;9.60;6.35;;;;;;;;;;6248591;22;20124;-86
2021/04/21 07:05:07;;;;;;;9.88;6.25;;;;;;;;;;6248149;22;20705;-87
2021/04/21 07:07:34;;;;;;;10.75;6.10;;;;;;;;;;6274569;22;20391;-86
2021/04/21 07:10:01;;;;;;;9.55;6.00;;;;;;;;;;6275644;22;20007;-86
2021/04/21 07:12:26;;;;;;;9.80;5.75;;;;;;;;;;6275431;22;20003;-86
2021/04/21 07:14:53;;;;;;;10.75;6.85;;;;;;;;;;6248044;22;20011;-86
2021/04/21 07:17:20;;;;;;;10.07;6.53;;;;;;;;;;6248350;22;20030;-87
2021/04/21 07:19:46;;;;;;;10.23;6.63;;;;;;;;;;6249052;22;19999;-87
2021/04/21 07:22:13;;;;;;;10.90;6.35;;;;;;;;;;6275121;22;20012;-85
2021/04/21 07:24:43;;;;;;;11.05;6.03;;;;;;;;;;6248408;22;20000;-87
2021/04/21 07:27:09;;;;;;;9.75;6.20;;;;;;;;;;6248553;22;20066;-86
2021/04/21 07:29:36;;;;;;;9.00;6.45;;;;;;;;;;6257356;22;20000;-87
2021/04/21 07:32:16;;;;;;;11.88;7.07;;;;;;;;;;6295036;22;20014;-87
2021/04/21 07:34:41;;;;;;;9.98;6.35;;;;;;;;;;6280904;22;20070;-86
2021/04/21 07:37:08;;;;;;;10.23;6.03;;;;;;;;;;6247877;22;20010;-86
2021/04/21 07:39:36;;;;;;;10.73;6.65;;;;;;;;;;6248669;22;20004;-87
2021/04/21 07:42:03;;;;;;;9.90;6.40;;;;;;;;;;6248879;22;20381;-87
2021/04/21 07:44:29;;;;;;;9.45;6.20;;;;;;;;;;6275518;22;20077;-87
2021/04/21 07:47:04;;;;;;;9.90;7.10;;;;;;;;;;6249293;22;20620;-87
2021/04/21 07:49:30;;;;;;;9.40;6.40;;;;;;;;;;6248891;22;20018;-87
2021/04/21 07:51:56;;;;;;;9.70;6.10;;;;;;;;;;6248180;22;20014;-87
2021/04/21 07:54:27;;;;;;;9.88;6.03;;;;;;;;;;6249054;22;20029;-87
2021/04/21 07:57:04;;;;;;;8.63;5.82;;;;;;;;;;6250412;22;20011;-86
2021/04/21 07:59:34;;;;;;;9.20;6.70;;;;;;;;;;6276128;22;20039;-87
2021/04/21 08:02:08;;;;;;;10.18;6.20;;;;;;;;;;6248710;22;20003;-88
2021/04/21 08:04:44;;;;;;;9.32;6.05;;;;;;;;;;6248806;22;20032;-87
2021/04/21 08:07:10;;;;;;;9.50;5.97;;;;;;;;;;6249661;22;20008;-86
2021/04/21 08:09:36;;;;;;;9.57;6.40;;;;;;;;;;6248912;22;20014;-86
2021/04/21 08:12:08;;;;;;;8.35;5.75;;;;;;;;;;6249051;22;20058;-87
2021/04/21 08:14:38;;;;;;;7.97;5.53;;;;;;;;;;6267857;22;20067;-83
2021/04/21 08:17:04;;;;;;;9.10;6.07;;;;;;;;;;6295060;22;20029;-81
2021/04/21 08:19:34;;;;;;;7.38;5.00;;;;;;;;;;6300910;22;19996;-83
2021/04/21 08:22:00;;;;;;;7.82;5.63;;;;;;;;;;6300124;22;20008;-85
2021/04/21 08:24:25;;;;;;;8.45;5.80;;;;;;;;;;6256727;22;20034;-84
2021/04/21 08:26:54;;;;;;;11.20;6.50;;;;;;;;;;6279785;22;20034;-84
2021/04/21 08:29:20;;;;;;;11.15;6.40;;;;;;;;;;6277647;22;19999;-84
2021/04/21 08:31:50;;;;;;;9.63;6.18;;;;;;;;;;6276487;22;20047;-84
2021/04/21 08:34:16;;;;;;;9.07;5.57;;;;;;;;;;6254180;22;20000;-87
2021/04/21 08:36:42;;;;;;;9.45;5.88;;;;;;;;;;6281437;22;20006;-86
2021/04/21 08:39:09;;;;;;;8.45;5.45;;;;;;;;;;6298415;22;19984;-86
2021/04/21 08:41:38;;;;;;;8.15;5.70;;;;;;;;;;6272175;22;19994;-86
2021/04/21 08:44:04;;;;;;;9.30;6.25;;;;;;;;;;6292518;22;20007;-87
2021/04/21 08:46:30;;;;;;;10.55;5.47;;;;;;;;;;6277531;22;20008;-87
2021/04/21 08:48:57;;;;;;;11.95;6.90;;;;;;;;;;6246154;22;20049;-86
2021/04/21 08:51:23;;;;;;;12.13;7.10;;;;;;;;;;6246477;22;20097;-86
2021/04/21 08:53:54;;;;;;;11.27;7.55;;;;;;;;;;6246340;22;20053;-86
2021/04/21 08:56:20;;;;;;;13.00;7.80;;;;;;;;;;6273537;22;20034;-87
2021/04/21 08:58:46;;;;;;;12.05;7.70;;;;;;;;;;6247102;22;20448;-87
2021/04/21 09:01:13;;;;;;;11.93;8.27;;;;;;;;;;6273839;22;19996;-86
2021/04/21 09:03:39;;;;;;;11.07;7.50;;;;;;;;;;6247645;22;20000;-86
2021/04/21 09:06:05;;;;;;;12.02;7.63;;;;;;;;;;6248267;22;20004;-86
2021/04/21 09:08:31;;;;;;;10.98;7.47;;;;;;;;;;6248687;22;20025;-87
2021/04/21 09:10:57;;;;;;;13.18;8.27;;;;;;;;;;6276149;22;20073;-86
2021/04/21 09:15:45;;;;;;;11.43;8.30;;;;;;;;;;5075823;27;20418;-85
2021/04/21 09:18:10;;;;;;;12.15;8.15;;;;;;;;;;5040379;28;20032;-85
2021/04/21 09:20:46;;;;;;;12.07;7.45;;;;;;;;;;5043089;28;20537;-87
2021/04/21 09:23:14;;;;;;;10.93;7.82;;;;;;;;;;5046258;28;20426;-84
2021/04/21 09:25:41;;;;;;;12.68;7.50;;;;;;;;;;5051084;28;20048;-87
2021/04/21 09:28:07;;;;;;;8.35;6.15;;;;;;;;;;5055506;28;20094;-87
2021/04/21 09:30:36;;;;;;;8.73;6.43;;;;;;;;;;5055124;28;20029;-87
2021/04/21 09:33:01;;;;;;;10.02;7.20;;;;;;;;;;5053136;28;20017;-87
2021/04/21 09:35:33;;;;;;;10.75;6.68;;;;;;;;;;5046504;28;20516;-87
2021/04/21 09:38:01;;;;;;;8.23;5.57;;;;;;;;;;5036618;28;20037;-87
2021/04/21 09:40:34;;;;;;;9.30;5.70;;;;;;;;;;5039488;28;20424;-87
2021/04/21 09:43:00;;;;;;;12.00;5.75;;;;;;;;;;5039165;28;20051;-87
2021/04/21 09:45:40;;;;;;;8.20;5.50;;;;;;;;;;5052058;28;20020;-87
2021/04/21 09:48:07;;;;;;;8.95;4.90;;;;;;;;;;5055984;28;20512;-86
2021/04/21 09:50:33;;;;;;;14.43;6.38;;;;;;;;;;5048461;28;20083;-85
2021/04/21 09:52:58;;;;;;;8.15;6.18;;;;;;;;;;5041978;28;20033;-86
2021/04/21 09:55:29;;;;;;;7.15;5.40;;;;;;;;;;5042439;28;20024;-86
2021/04/21 09:57:55;;;;;;;8.10;5.30;;;;;;;;;;5040322;28;20030;-86
2021/04/21 10:00:24;;;;;;;8.32;4.93;;;;;;;;;;5055297;28;20031;-86
2021/04/21 10:02:50;;;;;;;7.55;4.55;;;;;;;;;;5036078;28;20025;-85
2021/04/21 10:05:23;;;;;;;7.60;5.20;;;;;;;;;;5051029;28;20454;-86
2021/04/21 10:08:08;;;;;;;11.18;5.97;;;;;;;;;;5037937;28;20036;-85
2021/04/21 10:10:37;;;;;;;9.70;6.15;;;;;;;;;;5045201;28;20021;-85
2021/04/21 10:13:13;;;;;;;8.18;5.95;;;;;;;;;;5049960;28;20416;-85
2021/04/21 10:15:39;;;;;;;8.85;4.50;;;;;;;;;;5052904;28;20027;-85
2021/04/21 10:18:07;;;;;;;7.15;5.07;;;;;;;;;;5048558;28;20040;-83
2021/04/21 10:20:33;;;;;;;8.07;4.60;;;;;;;;;;5036752;28;20021;-84
2021/04/21 10:22:59;;;;;;;8.75;5.18;;;;;;;;;;5039969;28;20033;-83
2021/04/21 10:25:26;;;;;;;7.85;4.63;;;;;;;;;;5040439;28;20033;-85
2021/04/21 10:27:52;;;;;;;8.68;4.68;;;;;;;;;;5035082;28;20033;-85
2021/04/21 10:30:18;;;;;;;7.45;4.82;;;;;;;;;;5023085;28;20080;-85
2021/04/21 10:32:47;;;;;;;6.28;4.60;;;;;;;;;;5017093;28;20022;-85
2021/04/21 10:35:13;;;;;;;6.18;4.30;;;;;;;;;;5048484;28;20112;-86
2021/04/21 10:37:40;;;;;;;6.20;4.38;;;;;;;;;;5029884;28;20026;-85
2021/04/21 10:40:10;;;;;;;12.10;4.80;;;;;;;;;;5023333;28;20026;-84
2021/04/21 10:42:46;;;;;;;6.60;4.43;;;;;;;;;;5028458;28;20028;-84
2021/04/21 10:45:13;;;;;;;9.60;4.38;;;;;;;;;;5029191;28;20037;-86
2021/04/21 10:47:44;;;;;;;9.93;4.97;;;;;;;;;;5038862;28;20769;-84
2021/04/21 10:50:11;;;;;;;5.43;3.72;;;;;;;;;;5045823;28;20036;-84
2021/04/21 10:52:38;;;;;;;6.72;4.40;;;;;;;;;;5048620;28;20029;-85
2021/04/21 10:55:07;;;;;;;9.23;4.82;;;;;;;;;;5051501;28;20025;-85
2021/04/21 10:57:35;;;;;;;10.32;7.18;;;;;;;;;;5030421;28;20068;-85
2021/04/21 11:00:11;;;;;;;8.38;5.00;;;;;;;;;;5033632;28;20041;-85
2021/04/21 11:02:43;;;;;;;7.03;5.20;;;;;;;;;;5031760;28;20112;-85
2021/04/21 11:05:10;;;;;;;10.77;7.20;;;;;;;;;;5030845;28;20029;-84
2021/04/21 11:07:36;;;;;;;8.73;5.50;;;;;;;;;;5025473;28;20052;-84
2021/04/21 11:10:03;;;;;;;7.55;5.13;;;;;;;;;;5031296;28;20072;-84
2021/04/21 11:12:47;;;;;;;7.65;5.18;;;;;;;;;;5063193;22;20038;-80
2021/04/21 11:15:32;;;;;;;8.15;5.20;;;;;;;;;;5038315;28;20033;-79
2021/04/21 11:18:10;;;;;;;7.72;4.55;;;;;;;;;;5036832;28;20014;-79
2021/04/21 11:20:45;;;;;;;8.00;4.57;;;;;;;;;;5041103;28;20013;-80
2021/04/21 11:23:30;;;;;;;6.55;4.72;;;;;;;;;;5058719;28;20009;-80
2021/04/21 11:26:15;;;;;;;10.40;5.18;;;;;;;;;;5058269;28;20037;-79
2021/04/21 11:29:03;;;;;;;8.05;5.15;;;;;;;;;;5058601;28;20017;-79
2021/04/21 11:31:48;;;;;;;7.57;4.50;;;;;;;;;;5072663;28;20051;-81
2021/04/21 11:36:54;;;;;;;9.80;4.85;;;;;;;;;;5102524;27;20369;-82
2021/04/21 11:39:38;;;;;;;5.80;3.60;;;;;;;;;;5103136;28;20059;-82
2021/04/21 11:42:19;;;;;;;8.85;5.47;;;;;;;;;;5095821;28;20020;-82
2021/04/21 11:44:51;;;;;;;7.57;5.10;;;;;;;;;;5088364;28;20107;-83
2021/04/21 11:47:33;;;;;;;7.05;5.38;;;;;;;;;;5093188;28;20059;-82
2021/04/21 11:50:06;;;;;;;7.47;5.35;;;;;;;;;;5092247;28;20020;-81
2021/04/21 11:52:59;;;;;;;9.80;5.60;;;;;;;;;;5093986;28;20089;-82
2021/04/21 11:55:24;;;;;;;7.97;4.90;;;;;;;;;;5097313;28;20043;-82
2021/04/21 11:57:51;;;;;;;7.78;5.07;;;;;;;;;;5094648;28;20021;-83
2021/04/21 12:00:17;;;;;;;7.03;4.85;;;;;;;;;;5102584;28;20016;-80
2021/04/21 12:02:43;;;;;;;7.45;4.88;;;;;;;;;;5094239;28;20025;-81
2021/04/21 12:05:09;;;;;;;6.80;4.30;;;;;;;;;;5097385;28;20434;-83
2021/04/21 12:07:35;;;;;;;7.50;4.10;;;;;;;;;;5096959;28;20028;-83
2021/04/21 12:10:00;;;;;;;6.03;3.92;;;;;;;;;;5092221;28;20016;-83
2021/04/21 12:12:26;;;;;;;6.30;3.97;;;;;;;;;;5093866;28;20032;-82
2021/04/21 12:15:09;;;;;;;6.00;4.00;;;;;;;;;;5088048;28;20028;-83
2021/04/21 12:17:35;;;;;;;8.50;5.05;;;;;;;;;;5096782;28;20029;-82
2021/04/21 12:20:01;;;;;;;6.65;4.70;;;;;;;;;;5099749;28;20379;-82
2021/04/21 12:22:42;;;;;;;6.53;3.95;;;;;;;;;;5100743;28;20016;-83
2021/04/21 12:25:09;;;;;;;8.20;4.55;;;;;;;;;;5101973;28;20039;-82
2021/04/21 12:27:34;;;;;;;6.97;4.20;;;;;;;;;;5092146;28;20032;-84
2021/04/21 12:30:09;;;;;;;8.73;5.00;;;;;;;;;;5092418;28;20028;-83
2021/04/21 12:32:35;;;;;;;7.75;5.10;;;;;;;;;;5097564;28;20050;-85
2021/04/21 12:35:01;;;;;;;6.75;4.80;;;;;;;;;;5090415;28;20028;-84
2021/04/21 12:37:27;;;;;;;8.60;5.53;;;;;;;;;;5093000;28;20032;-85
2021/04/21 12:39:52;;;;;;;10.98;5.97;;;;;;;;;;5088889;28;20100;-84
2021/04/21 12:42:21;;;;;;;8.48;5.80;;;;;;;;;;5097718;28;20026;-84
2021/04/21 12:44:47;;;;;;;8.55;5.20;;;;;;;;;;5089243;28;20062;-83
2021/04/21 12:47:13;;;;;;;9.23;5.30;;;;;;;;;;5084250;28;20020;-84
2021/04/21 12:49:41;;;;;;;7.10;4.82;;;;;;;;;;5082122;28;20050;-82
2021/04/21 12:52:08;;;;;;;8.30;5.07;;;;;;;;;;5085818;28;20038;-83
2021/04/21 12:54:37;;;;;;;6.78;4.93;;;;;;;;;;5078684;28;20017;-84
2021/04/21 12:57:04;;;;;;;12.07;5.50;;;;;;;;;;5079659;28;20024;-83
2021/04/21 12:59:37;;;;;;;8.20;5.30;;;;;;;;;;5081256;28;20020;-83
2021/04/21 13:02:03;;;;;;;6.47;4.20;;;;;;;;;;5088347;28;20427;-84
2021/04/21 13:04:36;;;;;;;8.80;4.70;;;;;;;;;;5086504;28;20046;-84
2021/04/21 13:07:11;;;;;;;5.50;3.60;;;;;;;;;;5080373;28;20024;-84
2021/04/21 13:09:37;;;;;;;6.68;3.85;;;;;;;;;;5090719;28;20016;-85
2021/04/21 13:12:04;;;;;;;6.45;4.18;;;;;;;;;;5086177;28;20095;-84
2021/04/21 13:14:40;;;;;;;6.93;4.72;;;;;;;;;;5089526;28;20051;-85
2021/04/21 13:17:07;;;;;;;6.18;4.22;;;;;;;;;;5088547;28;20075;-85
2021/04/21 13:19:34;;;;;;;8.00;4.68;;;;;;;;;;5083869;28;20497;-82
2021/04/21 13:22:01;;;;;;;5.88;3.95;;;;;;;;;;5093239;28;20020;-84
2021/04/21 13:24:27;;;;;;;6.43;3.97;;;;;;;;;;5091139;28;20047;-84
2021/04/21 13:26:54;;;;;;;7.00;4.32;;;;;;;;;;5094915;28;20029;-85
2021/04/21 13:29:30;;;;;;;8.35;4.07;;;;;;;;;;5080164;28;20418;-84
2021/04/21 13:32:05;;;;;;;5.68;3.67;;;;;;;;;;5075987;28;20562;-84
2021/04/21 13:34:31;;;;;;;7.90;4.45;;;;;;;;;;5084124;28;20105;-85
2021/04/21 13:36:57;;;;;;;6.20;4.35;;;;;;;;;;5082688;28;20443;-85
2021/04/21 13:39:22;;;;;;;6.10;3.60;;;;;;;;;;5084236;28;20023;-83
2021/04/21 13:41:48;;;;;;;5.30;3.80;;;;;;;;;;5082738;28;20062;-85
2021/04/21 13:44:14;;;;;;;4.95;3.50;;;;;;;;;;5084422;28;20102;-84
2021/04/21 13:46:39;;;;;;;6.35;3.42;;;;;;;;;;5090648;28;20112;-86
2021/04/21 13:49:05;;;;;;;5.30;3.55;;;;;;;;;;5082356;28;20115;-84
2021/04/21 13:51:31;;;;;;;5.88;3.90;;;;;;;;;;5078817;28;20115;-82
2021/04/21 13:53:56;;;;;;;5.93;3.90;;;;;;;;;;5075225;28;20107;-85
2021/04/21 13:56:22;;;;;;;8.60;3.65;;;;;;;;;;5082595;28;20023;-84
2021/04/21 13:58:48;;;;;;;5.90;4.00;;;;;;;;;;5083307;28;20039;-83
2021/04/21 14:01:13;;;;;;;5.50;3.75;;;;;;;;;;5083939;28;20024;-84
2021/04/21 14:03:39;;;;;;;5.88;4.10;;;;;;;;;;5081155;28;20468;-84
2021/04/21 14:06:04;;;;;;;4.13;3.00;;;;;;;;;;5083276;28;20446;-84
2021/04/21 14:08:30;;;;;;;8.60;5.15;;;;;;;;;;5084826;28;20052;-83
2021/04/21 14:10:56;;;;;;;5.53;3.33;;;;;;;;;;5089955;28;20032;-83
2021/04/21 14:13:21;;;;;;;4.57;3.17;;;;;;;;;;5084409;28;20084;-83
2021/04/21 14:15:47;;;;;;;5.35;3.65;;;;;;;;;;5081202;28;20492;-82
2021/04/21 14:18:13;;;;;;;9.90;4.00;;;;;;;;;;5078538;28;20452;-84
2021/04/21 14:20:39;;;;;;;7.30;3.35;;;;;;;;;;5083396;28;20103;-84
2021/04/21 14:23:04;;;;;;;4.75;3.03;;;;;;;;;;5086611;28;20016;-84
2021/04/21 14:25:30;;;;;;;4.57;2.80;;;;;;;;;;5078548;28;20564;-83
2021/04/21 14:27:56;;;;;;;5.22;3.50;;;;;;;;;;5078596;28;20027;-83
2021/04/21 14:30:22;;;;;;;8.00;4.22;;;;;;;;;;5078764;28;20436;-84
2021/04/21 14:32:48;;;;;;;6.35;3.80;;;;;;;;;;5084198;28;20017;-84
2021/04/21 14:35:15;;;;;;;5.97;3.97;;;;;;;;;;5084374;28;20027;-84
2021/04/21 14:37:40;;;;;;;5.55;3.25;;;;;;;;;;5076959;28;20020;-84
2021/04/21 14:40:06;;;;;;;4.28;2.83;;;;;;;;;;5081627;28;20013;-84
2021/04/21 14:42:32;;;;;;;4.38;2.78;;;;;;;;;;5080847;28;20022;-84
2021/04/21 14:44:58;;;;;;;5.55;3.17;;;;;;;;;;5080769;28;20074;-83
2021/04/21 14:47:24;;;;;;;4.80;2.70;;;;;;;;;;5081684;28;20031;-83
2021/04/21 14:49:51;;;;;;;4.95;3.13;;;;;;;;;;5074564;28;20801;-82
2021/04/21 14:52:17;;;;;;;5.68;2.75;;;;;;;;;;5076692;28;20427;-82
2021/04/21 14:54:43;;;;;;;5.05;2.97;;;;;;;;;;5084264;28;20030;-82
2021/04/21 14:57:08;;;;;;;5.15;3.70;;;;;;;;;;5078619;28;20024;-82
2021/04/21 14:59:34;;;;;;;5.95;3.50;;;;;;;;;;5074193;28;20062;-82
2021/04/21 15:02:03;;;;;;;5.10;3.10;;;;;;;;;;5082349;28;20103;-79
2021/04/21 15:04:29;;;;;;;6.22;3.58;;;;;;;;;;5082733;28;20028;-79
2021/04/21 15:06:54;;;;;;;6.70;3.35;;;;;;;;;;5076894;28;20069;-82
2021/04/21 15:09:21;;;;;;;4.22;3.20;;;;;;;;;;5081940;28;20025;-81
2021/04/21 15:11:47;;;;;;;5.25;3.28;;;;;;;;;;5078191;28;20036;-80
2021/04/21 15:14:12;;;;;;;4.65;3.22;;;;;;;;;;5072401;28;20025;-81
2021/04/21 15:16:41;;;;;;;5.60;3.22;;;;;;;;;;5084755;28;20024;-80
2021/04/21 15:19:10;;;;;;;5.18;3.58;;;;;;;;;;5082163;28;20017;-81
2021/04/21 15:21:37;;;;;;;5.18;3.15;;;;;;;;;;5085746;28;20522;-82
2021/04/21 15:24:04;;;;;;;6.40;3.35;;;;;;;;;;5082751;28;20103;-81
2021/04/21 15:26:34;;;;;;;6.13;2.95;;;;;;;;;;5094663;28;20020;-82
2021/04/21 15:29:00;;;;;;;4.70;3.20;;;;;;;;;;5083710;28;20078;-82
2021/04/21 15:31:28;;;;;;;5.38;2.95;;;;;;;;;;5092532;28;20032;-82
2021/04/21 15:33:54;;;;;;;5.78;3.53;;;;;;;;;;5084598;28;20024;-82
2021/04/21 15:36:20;;;;;;;4.32;2.90;;;;;;;;;;5075843;28;20506;-81
2021/04/21 15:38:46;;;;;;;4.55;3.20;;;;;;;;;;5086119;28;20029;-82
2021/04/21 15:41:13;;;;;;;4.60;2.88;;;;;;;;;;5094044;28;20016;-82
2021/04/21 15:43:39;;;;;;;3.75;2.53;;;;;;;;;;5084673;28;20031;-83
2021/04/21 15:46:04;;;;;;;4.75;2.75;;;;;;;;;;5084148;28;20036;-82
2021/04/21 15:48:30;;;;;;;4.65;3.20;;;;;;;;;;5086104;28;20036;-82
2021/04/21 15:50:57;;;;;;;4.30;3.03;;;;;;;;;;5086447;28;20488;-81
2021/04/21 15:53:22;;;;;;;5.13;3.40;;;;;;;;;;5073509;28;20031;-82
2021/04/21 15:55:48;;;;;;;5.00;2.97;;;;;;;;;;5077893;28;20032;-82
2021/04/21 15:58:21;;;;;;;6.35;3.78;;;;;;;;;;5085810;28;20100;-81
2021/04/21 16:00:47;;;;;;;6.93;4.07;;;;;;;;;;5076843;28;20017;-80
2021/04/21 16:03:16;;;;;;;5.95;3.38;;;;;;;;;;5079143;28;20067;-81
2021/04/21 16:05:41;;;;;;;6.63;3.28;;;;;;;;;;5082889;28;20021;-82
2021/04/21 16:08:07;;;;;;;5.38;3.28;;;;;;;;;;5084393;28;20024;-82
2021/04/21 16:10:33;;;;;;;6.22;3.13;;;;;;;;;;5076349;28;20056;-82
2021/04/21 16:12:59;;;;;;;6.45;3.03;;;;;;;;;;5074503;28;20050;-81
2021/04/21 16:15:25;;;;;;;5.28;3.40;;;;;;;;;;5076625;28;20023;-83
2021/04/21 16:17:51;;;;;;;4.60;3.28;;;;;;;;;;5080784;28;20020;-82
2021/04/21 16:20:18;;;;;;;5.10;3.20;;;;;;;;;;5079483;28;20016;-82
2021/04/21 16:22:45;;;;;;;4.32;2.97;;;;;;;;;;5082720;28;20044;-81
2021/04/21 16:25:14;;;;;;;4.15;2.72;;;;;;;;;;5091081;28;20017;-82
2021/04/21 16:27:41;;;;;;;12.57;11.35;;;;;;;;;;5082106;28;20038;-80
2021/04/21 16:30:07;;;;;;;9.18;4.47;;;;;;;;;;5088726;28;20480;-79
2021/04/21 16:32:33;;;;;;;5.43;3.72;;;;;;;;;;5074604;28;20036;-79
2021/04/21 16:34:59;;;;;;;4.25;2.83;;;;;;;;;;5086329;28;20498;-80
2021/04/21 16:37:24;;;;;;;5.72;3.00;;;;;;;;;;5085108;28;20095;-79
2021/04/21 16:39:50;;;;;;;5.47;3.42;;;;;;;;;;5087215;28;20020;-79
2021/04/21 16:42:16;;;;;;;4.35;3.20;;;;;;;;;;5082658;28;20521;-78
2021/04/21 16:44:43;;;;;;;6.82;3.53;;;;;;;;;;5083165;28;20098;-78
2021/04/21 16:47:09;;;;;;;5.28;3.22;;;;;;;;;;5078670;28;20512;-78
2021/04/21 16:49:35;;;;;;;5.50;3.25;;;;;;;;;;5080235;28;20036;-79
2021/04/21 16:52:00;;;;;;;6.18;3.15;;;;;;;;;;5083213;28;20023;-79
2021/04/21 16:54:26;;;;;;;5.85;4.13;;;;;;;;;;5077126;28;20044;-78
2021/04/21 16:56:52;;;;;;;6.15;3.30;;;;;;;;;;5082035;28;20403;-79
2021/04/21 16:59:17;;;;;;;5.22;3.15;;;;;;;;;;5078693;28;20035;-79
2021/04/21 17:01:44;;;;;;;10.07;5.38;;;;;;;;;;5084409;28;20016;-79
2021/04/21 17:04:10;;;;;;;6.72;3.78;;;;;;;;;;5083316;28;20494;-79
2021/04/21 17:06:37;;;;;;;5.15;3.58;;;;;;;;;;5077815;28;20508;-78
2021/04/21 17:09:04;;;;;;;5.57;3.35;;;;;;;;;;5083484;28;20031;-79
2021/04/21 17:11:29;;;;;;;4.78;3.00;;;;;;;;;;5085407;28;20025;-78
2021/04/21 17:14:06;;;;;;;5.65;3.08;;;;;;;;;;5082467;28;20074;-78
2021/04/21 17:16:31;;;;;;;4.90;3.20;;;;;;;;;;5082130;28;20082;-79
2021/04/21 17:19:00;;;;;;;5.05;3.38;;;;;;;;;;5081457;28;20480;-78
2021/04/21 17:21:26;;;;;;;7.43;4.50;;;;;;;;;;5082815;28;20499;-79
2021/04/21 17:23:52;;;;;;;9.68;6.43;;;;;;;;;;5077916;28;20422;-78
2021/04/21 17:26:18;;;;;;;7.78;5.63;;;;;;;;;;5085419;28;20019;-79
2021/04/21 17:28:44;;;;;;;5.82;3.92;;;;;;;;;;5076104;28;20024;-78
2021/04/21 17:31:11;;;;;;;8.20;5.35;;;;;;;;;;5076061;28;20105;-79
2021/04/21 17:33:36;;;;;;;5.72;3.97;;;;;;;;;;5079386;28;20507;-79
2021/04/21 17:36:02;;;;;;;5.57;3.70;;;;;;;;;;5072573;28;20028;-78
2021/04/21 17:38:36;;;;;;;4.60;3.17;;;;;;;;;;5077270;28;20043;-78
2021/04/21 17:41:01;;;;;;;5.32;3.42;;;;;;;;;;5082255;28;20020;-78
2021/04/21 17:43:29;;;;;;;5.30;3.88;;;;;;;;;;5084673;28;20020;-80
2021/04/21 17:46:00;;;;;;;4.90;3.28;;;;;;;;;;5079514;28;20039;-79
2021/04/21 17:48:26;;;;;;;5.18;4.13;;;;;;;;;;5083027;28;20097;-79
2021/04/21 17:50:52;;;;;;;4.53;3.15;;;;;;;;;;5077653;28;20037;-79
2021/04/21 17:53:18;;;;;;;4.68;3.10;;;;;;;;;;5074248;28;20104;-79
2021/04/21 17:55:45;;;;;;;4.50;3.08;;;;;;;;;;5085383;28;20050;-78
2021/04/21 17:58:10;;;;;;;4.78;3.53;;;;;;;;;;5080478;28;20028;-79
2021/04/21 18:00:37;;;;;;;5.53;3.60;;;;;;;;;;5082973;28;20035;-78
2021/04/21 18:03:03;;;;;;;4.80;3.25;;;;;;;;;;5084720;28;20024;-80
2021/04/21 18:05:28;;;;;;;5.55;3.53;;;;;;;;;;5082179;28;20085;-78
2021/04/21 18:07:54;;;;;;;11.27;4.05;;;;;;;;;;5081184;28;20022;-79
2021/04/21 18:10:20;;;;;;;8.00;3.00;;;;;;;;;;5074737;28;20020;-79
2021/04/21 18:12:45;;;;;;;4.88;3.17;;;;;;;;;;5079983;28;20032;-79
2021/04/21 18:15:12;;;;;;;5.93;2.80;;;;;;;;;;5079455;28;20712;-79
2021/04/21 18:17:38;;;;;;;4.55;3.03;;;;;;;;;;5080123;28;20077;-78
2021/04/21 18:20:07;;;;;;;5.47;3.45;;;;;;;;;;5081294;28;20426;-79
2021/04/21 18:22:33;;;;;;;5.07;3.22;;;;;;;;;;5080064;28;20799;-78
2021/04/21 18:24:59;;;;;;;6.65;3.85;;;;;;;;;;5076271;28;20408;-79
2021/04/21 18:27:25;;;;;;;5.13;3.38;;;;;;;;;;5086937;28;20106;-78
2021/04/21 18:29:50;;;;;;;3.95;2.78;;;;;;;;;;5083649;28;20032;-79
2021/04/21 18:32:18;;;;;;;5.38;3.90;;;;;;;;;;5076962;28;20032;-79
2021/04/21 18:34:44;;;;;;;6.03;3.83;;;;;;;;;;5071346;28;20027;-78
2021/04/21 18:37:10;;;;;;;7.18;3.90;;;;;;;;;;5079813;28;20042;-79
2021/04/21 18:39:36;;;;;;;11.68;8.73;;;;;;;;;;5081820;28;20480;-79
2021/04/21 18:42:01;;;;;;;11.70;8.45;;;;;;;;;;5081957;28;20032;-79
2021/04/21 18:44:27;;;;;;;10.50;7.55;;;;;;;;;;5075941;28;20039;-79
2021/04/21 18:46:53;;;;;;;11.27;6.63;;;;;;;;;;5078678;28;20105;-79
2021/04/21 18:49:19;;;;;;;8.25;5.90;;;;;;;;;;5080684;28;20090;-79
2021/04/21 18:51:44;;;;;;;7.30;5.65;;;;;;;;;;5082358;28;20028;-78
2021/04/21 18:54:11;;;;;;;8.38;5.32;;;;;;;;;;5078953;28;20956;-79
2021/04/21 18:56:38;;;;;;;6.55;4.15;;;;;;;;;;5078634;28;20037;-79
2021/04/21 18:59:04;;;;;;;5.95;4.10;;;;;;;;;;5074233;28;20073;-78
2021/04/21 19:01:30;;;;;;;5.13;3.60;;;;;;;;;;5079458;28;20369;-78
2021/04/21 19:03:55;;;;;;;7.15;3.80;;;;;;;;;;5073854;28;20108;-79
2021/04/21 19:06:21;;;;;;;5.85;4.22;;;;;;;;;;5077670;28;20489;-79
2021/04/21 19:08:47;;;;;;;5.97;4.22;;;;;;;;;;5076343;28;20032;-79
2021/04/21 19:11:13;;;;;;;5.85;4.00;;;;;;;;;;5083179;28;20024;-80
2021/04/21 19:13:38;;;;;;;5.20;3.60;;;;;;;;;;5080291;28;20103;-78
2021/04/21 19:16:04;;;;;;;6.78;3.53;;;;;;;;;;5085639;28;20073;-78
2021/04/21 19:18:30;;;;;;;11.38;6.85;;;;;;;;;;5083654;28;20115;-78
2021/04/21 19:20:56;;;;;;;10.23;6.13;;;;;;;;;;5077492;28;20380;-79
2021/04/21 19:23:22;;;;;;;6.38;4.93;;;;;;;;;;5079871;28;20646;-78
2021/04/21 19:25:48;;;;;;;6.90;5.38;;;;;;;;;;5080912;28;20063;-79
2021/04/21 19:28:14;;;;;;;6.70;4.90;;;;;;;;;;5074190;28;20025;-80
2021/04/21 19:30:40;;;;;;;8.40;6.15;;;;;;;;;;5083132;28;20066;-79
2021/04/21 19:33:06;;;;;;;11.82;10.63;;;;;;;;;;5077065;28;20024;-78
2021/04/21 19:35:32;;;;;;;11.40;6.85;;;;;;;;;;5079276;28;20036;-79
2021/04/21 19:37:59;;;;;;;8.60;5.07;;;;;;;;;;5080542;28;20044;-80